Yateley, United Kingdom
Current Conditions -  °F | °C
As of 8:50 PM on Thursday 27 Nov 2014 (Local Time) from EGLF Reporting Station
Haze Haze  
Wind Chill: 41°   Ceiling: Unl
Heat Index: 45°   Visibility: 2.8mi
Dew Point: 45°   Wind: 6mph
Humidity: 100%   Direction: 80°E
Pressure: 29.56"   Gusts: NA
Location:  51.34°N, 0.82°W
Report Text: EGLF 272050Z 08005KT 4500 2000W BR FEW016 07/07 Q1001
Loading
Personal Weather Stations






























Interactive Weather Map New forecast layout! Learn more

10-Day Weather Forecast

Advertisements
Track Severe Weather on mobile